sensor_id;sensor_type;location;lat;lon;timestamp;P1;durP1;ratioP1;P2;durP2;ratioP2
13660;SDS011;6903;49.480;11.102;2023-04-25T00:02:24;5.00;;;4.50;;
13660;SDS011;6903;49.480;11.102;2023-04-25T00:04:49;6.60;;;4.63;;
13660;SDS011;6903;49.480;11.102;2023-04-25T00:07:15;5.90;;;5.23;;
13660;SDS011;6903;49.480;11.102;2023-04-25T00:09:41;5.73;;;4.77;;
13660;SDS011;6903;49.480;11.102;2023-04-25T00:12:06;5.70;;;4.70;;
13660;SDS011;6903;49.480;11.102;2023-04-25T00:14:32;5.07;;;4.20;;
13660;SDS011;6903;49.480;11.102;2023-04-25T00:17:00;4.57;;;4.00;;
13660;SDS011;6903;49.480;11.102;2023-04-25T00:19:26;4.87;;;4.37;;
13660;SDS011;6903;49.480;11.102;2023-04-25T00:21:53;4.90;;;4.10;;
13660;SDS011;6903;49.480;11.102;2023-04-25T00:24:19;5.73;;;4.60;;
13660;SDS011;6903;49.480;11.102;2023-04-25T00:26:44;5.33;;;4.13;;
13660;SDS011;6903;49.480;11.102;2023-04-25T00:29:10;6.27;;;4.43;;
13660;SDS011;6903;49.480;11.102;2023-04-25T00:31:35;4.20;;;3.80;;
13660;SDS011;6903;49.480;11.102;2023-04-25T00:34:00;4.93;;;4.13;;
13660;SDS011;6903;49.480;11.102;2023-04-25T00:36:26;5.80;;;4.00;;
13660;SDS011;6903;49.480;11.102;2023-04-25T00:38:52;5.20;;;3.80;;
13660;SDS011;6903;49.480;11.102;2023-04-25T00:41:19;4.13;;;3.73;;
13660;SDS011;6903;49.480;11.102;2023-04-25T00:43:44;4.47;;;3.43;;
13660;SDS011;6903;49.480;11.102;2023-04-25T00:46:11;5.93;;;4.20;;
13660;SDS011;6903;49.480;11.102;2023-04-25T00:48:36;4.87;;;4.30;;
13660;SDS011;6903;49.480;11.102;2023-04-25T00:51:01;5.33;;;4.20;;
13660;SDS011;6903;49.480;11.102;2023-04-25T00:53:27;4.33;;;3.93;;
13660;SDS011;6903;49.480;11.102;2023-04-25T00:55:53;4.93;;;4.43;;
13660;SDS011;6903;49.480;11.102;2023-04-25T00:58:19;5.00;;;4.50;;
13660;SDS011;6903;49.480;11.102;2023-04-25T01:00:46;4.50;;;4.07;;
13660;SDS011;6903;49.480;11.102;2023-04-25T01:03:13;4.20;;;3.80;;
13660;SDS011;6903;49.480;11.102;2023-04-25T01:05:41;4.53;;;4.13;;
13660;SDS011;6903;49.480;11.102;2023-04-25T01:08:07;4.30;;;3.47;;
13660;SDS011;6903;49.480;11.102;2023-04-25T01:10:32;5.00;;;4.10;;
13660;SDS011;6903;49.480;11.102;2023-04-25T01:12:57;4.80;;;3.90;;
13660;SDS011;6903;49.480;11.102;2023-04-25T01:15:23;4.87;;;4.10;;
13660;SDS011;6903;49.480;11.102;2023-04-25T01:17:48;4.50;;;3.90;;
13660;SDS011;6903;49.480;11.102;2023-04-25T01:20:14;4.47;;;3.90;;
13660;SDS011;6903;49.480;11.102;2023-04-25T01:22:40;4.20;;;3.80;;
13660;SDS011;6903;49.480;11.102;2023-04-25T01:25:07;4.00;;;3.40;;
13660;SDS011;6903;49.480;11.102;2023-04-25T01:27:32;4.23;;;3.83;;
13660;SDS011;6903;49.480;11.102;2023-04-25T01:29:58;4.17;;;3.43;;
13660;SDS011;6903;49.480;11.102;2023-04-25T01:32:24;4.77;;;3.77;;
13660;SDS011;6903;49.480;11.102;2023-04-25T01:34:50;3.87;;;3.50;;
13660;SDS011;6903;49.480;11.102;2023-04-25T01:37:16;4.27;;;3.87;;
13660;SDS011;6903;49.480;11.102;2023-04-25T01:39:42;4.23;;;3.60;;
13660;SDS011;6903;49.480;11.102;2023-04-25T01:42:07;5.40;;;3.90;;
13660;SDS011;6903;49.480;11.102;2023-04-25T01:44:33;4.30;;;3.90;;
13660;SDS011;6903;49.480;11.102;2023-04-25T01:46:58;3.87;;;3.47;;
13660;SDS011;6903;49.480;11.102;2023-04-25T01:49:23;4.50;;;3.87;;
13660;SDS011;6903;49.480;11.102;2023-04-25T01:51:49;5.97;;;4.13;;
13660;SDS011;6903;49.480;11.102;2023-04-25T01:54:14;4.93;;;4.43;;
13660;SDS011;6903;49.480;11.102;2023-04-25T01:56:40;5.00;;;4.23;;
13660;SDS011;6903;49.480;11.102;2023-04-25T01:59:05;5.77;;;4.40;;
13660;SDS011;6903;49.480;11.102;2023-04-25T02:01:31;5.03;;;4.13;;
13660;SDS011;6903;49.480;11.102;2023-04-25T02:03:57;5.43;;;3.90;;
13660;SDS011;6903;49.480;11.102;2023-04-25T02:06:22;5.17;;;4.50;;
13660;SDS011;6903;49.480;11.102;2023-04-25T02:08:47;4.30;;;3.90;;
13660;SDS011;6903;49.480;11.102;2023-04-25T02:11:13;5.93;;;4.07;;
13660;SDS011;6903;49.480;11.102;2023-04-25T02:13:38;6.03;;;4.10;;
13660;SDS011;6903;49.480;11.102;2023-04-25T02:16:04;4.90;;;4.03;;
13660;SDS011;6903;49.480;11.102;2023-04-25T02:18:29;4.93;;;4.30;;
13660;SDS011;6903;49.480;11.102;2023-04-25T02:20:54;4.20;;;3.80;;
13660;SDS011;6903;49.480;11.102;2023-04-25T02:23:20;4.70;;;4.10;;
13660;SDS011;6903;49.480;11.102;2023-04-25T02:25:45;4.87;;;4.00;;
13660;SDS011;6903;49.480;11.102;2023-04-25T02:28:11;4.63;;;4.20;;
13660;SDS011;6903;49.480;11.102;2023-04-25T02:30:36;6.30;;;4.20;;
13660;SDS011;6903;49.480;11.102;2023-04-25T02:33:01;4.30;;;3.90;;
13660;SDS011;6903;49.480;11.102;2023-04-25T02:35:27;4.87;;;4.37;;
13660;SDS011;6903;49.480;11.102;2023-04-25T02:37:52;4.47;;;4.03;;
13660;SDS011;6903;49.480;11.102;2023-04-25T02:40:17;4.83;;;4.17;;
13660;SDS011;6903;49.480;11.102;2023-04-25T02:42:43;5.50;;;4.17;;
13660;SDS011;6903;49.480;11.102;2023-04-25T02:45:10;6.00;;;4.50;;
13660;SDS011;6903;49.480;11.102;2023-04-25T02:47:35;5.57;;;4.50;;
13660;SDS011;6903;49.480;11.102;2023-04-25T02:50:01;5.33;;;4.37;;
13660;SDS011;6903;49.480;11.102;2023-04-25T02:52:27;5.40;;;4.80;;
13660;SDS011;6903;49.480;11.102;2023-04-25T02:54:52;7.60;;;5.40;;
13660;SDS011;6903;49.480;11.102;2023-04-25T02:57:17;6.87;;;4.80;;
13660;SDS011;6903;49.480;11.102;2023-04-25T02:59:42;7.43;;;5.63;;
13660;SDS011;6903;49.480;11.102;2023-04-25T03:02:08;6.40;;;5.80;;
13660;SDS011;6903;49.480;11.102;2023-04-25T03:04:33;6.17;;;5.30;;
13660;SDS011;6903;49.480;11.102;2023-04-25T03:06:58;7.17;;;5.83;;
13660;SDS011;6903;49.480;11.102;2023-04-25T03:09:24;6.93;;;5.77;;
13660;SDS011;6903;49.480;11.102;2023-04-25T03:11:49;8.23;;;6.40;;
13660;SDS011;6903;49.480;11.102;2023-04-25T03:14:14;8.33;;;7.10;;
13660;SDS011;6903;49.480;11.102;2023-04-25T03:16:40;9.90;;;7.20;;
13660;SDS011;6903;49.480;11.102;2023-04-25T03:19:05;7.50;;;6.00;;
13660;SDS011;6903;49.480;11.102;2023-04-25T03:21:31;7.70;;;6.50;;
13660;SDS011;6903;49.480;11.102;2023-04-25T03:23:58;8.67;;;6.53;;
13660;SDS011;6903;49.480;11.102;2023-04-25T03:26:24;7.20;;;6.33;;
13660;SDS011;6903;49.480;11.102;2023-04-25T03:28:49;9.33;;;7.20;;
13660;SDS011;6903;49.480;11.102;2023-04-25T03:31:15;9.23;;;6.83;;
13660;SDS011;6903;49.480;11.102;2023-04-25T03:33:40;9.17;;;7.47;;
13660;SDS011;6903;49.480;11.102;2023-04-25T03:36:06;8.37;;;7.53;;
13660;SDS011;6903;49.480;11.102;2023-04-25T03:38:31;8.17;;;7.37;;
13660;SDS011;6903;49.480;11.102;2023-04-25T03:40:57;8.57;;;6.83;;
13660;SDS011;6903;49.480;11.102;2023-04-25T03:43:22;9.00;;;6.90;;
13660;SDS011;6903;49.480;11.102;2023-04-25T03:45:47;10.30;;;7.43;;
13660;SDS011;6903;49.480;11.102;2023-04-25T03:48:13;9.00;;;7.23;;
13660;SDS011;6903;49.480;11.102;2023-04-25T03:50:38;8.20;;;6.93;;
13660;SDS011;6903;49.480;11.102;2023-04-25T03:53:03;7.87;;;6.70;;
13660;SDS011;6903;49.480;11.102;2023-04-25T03:55:29;8.63;;;6.97;;
13660;SDS011;6903;49.480;11.102;2023-04-25T03:57:54;8.37;;;6.33;;
13660;SDS011;6903;49.480;11.102;2023-04-25T04:00:19;8.53;;;6.83;;
13660;SDS011;6903;49.480;11.102;2023-04-25T04:02:45;8.83;;;7.17;;
13660;SDS011;6903;49.480;11.102;2023-04-25T04:05:10;8.27;;;7.27;;
13660;SDS011;6903;49.480;11.102;2023-04-25T04:07:35;9.27;;;7.77;;
13660;SDS011;6903;49.480;11.102;2023-04-25T04:10:05;7.93;;;6.73;;
13660;SDS011;6903;49.480;11.102;2023-04-25T04:12:32;8.20;;;7.27;;
13660;SDS011;6903;49.480;11.102;2023-04-25T04:14:57;9.17;;;7.37;;
13660;SDS011;6903;49.480;11.102;2023-04-25T04:17:23;8.77;;;6.63;;
13660;SDS011;6903;49.480;11.102;2023-04-25T04:19:48;8.57;;;6.47;;
13660;SDS011;6903;49.480;11.102;2023-04-25T04:22:13;7.67;;;6.63;;
13660;SDS011;6903;49.480;11.102;2023-04-25T04:24:39;8.47;;;6.70;;
13660;SDS011;6903;49.480;11.102;2023-04-25T04:27:04;8.50;;;6.90;;
13660;SDS011;6903;49.480;11.102;2023-04-25T04:29:30;8.23;;;6.73;;
13660;SDS011;6903;49.480;11.102;2023-04-25T04:31:56;7.73;;;6.90;;
13660;SDS011;6903;49.480;11.102;2023-04-25T04:34:21;9.00;;;6.80;;
13660;SDS011;6903;49.480;11.102;2023-04-25T04:36:47;9.30;;;7.20;;
13660;SDS011;6903;49.480;11.102;2023-04-25T04:39:13;9.10;;;7.17;;
13660;SDS011;6903;49.480;11.102;2023-04-25T04:41:38;8.27;;;7.20;;
13660;SDS011;6903;49.480;11.102;2023-04-25T04:44:05;9.33;;;7.43;;
13660;SDS011;6903;49.480;11.102;2023-04-25T04:46:31;8.70;;;7.27;;
13660;SDS011;6903;49.480;11.102;2023-04-25T04:49:02;10.23;;;7.83;;
13660;SDS011;6903;49.480;11.102;2023-04-25T04:51:28;10.43;;;8.10;;
13660;SDS011;6903;49.480;11.102;2023-04-25T04:53:53;8.47;;;7.57;;
13660;SDS011;6903;49.480;11.102;2023-04-25T04:56:23;10.10;;;8.27;;
13660;SDS011;6903;49.480;11.102;2023-04-25T04:58:50;9.57;;;7.57;;
13660;SDS011;6903;49.480;11.102;2023-04-25T05:01:15;9.63;;;8.50;;
13660;SDS011;6903;49.480;11.102;2023-04-25T05:03:41;9.20;;;7.53;;
13660;SDS011;6903;49.480;11.102;2023-04-25T05:06:06;9.97;;;7.90;;
13660;SDS011;6903;49.480;11.102;2023-04-25T05:08:31;9.67;;;7.60;;
13660;SDS011;6903;49.480;11.102;2023-04-25T05:10:57;8.77;;;7.63;;
13660;SDS011;6903;49.480;11.102;2023-04-25T05:13:22;9.60;;;8.17;;
13660;SDS011;6903;49.480;11.102;2023-04-25T05:15:47;9.67;;;7.80;;
13660;SDS011;6903;49.480;11.102;2023-04-25T05:18:12;9.27;;;7.27;;
13660;SDS011;6903;49.480;11.102;2023-04-25T05:20:38;9.97;;;7.80;;
13660;SDS011;6903;49.480;11.102;2023-04-25T05:23:03;9.03;;;7.90;;
13660;SDS011;6903;49.480;11.102;2023-04-25T05:25:29;10.20;;;8.17;;
13660;SDS011;6903;49.480;11.102;2023-04-25T05:27:54;10.53;;;7.83;;
13660;SDS011;6903;49.480;11.102;2023-04-25T05:30:19;9.20;;;7.73;;
13660;SDS011;6903;49.480;11.102;2023-04-25T05:32:45;9.33;;;8.37;;
13660;SDS011;6903;49.480;11.102;2023-04-25T05:35:11;7.90;;;7.10;;
13660;SDS011;6903;49.480;11.102;2023-04-25T05:37:37;9.10;;;8.13;;
13660;SDS011;6903;49.480;11.102;2023-04-25T05:40:02;9.27;;;7.43;;
13660;SDS011;6903;49.480;11.102;2023-04-25T05:42:31;8.87;;;7.50;;
13660;SDS011;6903;49.480;11.102;2023-04-25T05:44:57;8.10;;;6.93;;
13660;SDS011;6903;49.480;11.102;2023-04-25T05:47:22;10.57;;;7.67;;
13660;SDS011;6903;49.480;11.102;2023-04-25T05:49:47;9.70;;;7.10;;
13660;SDS011;6903;49.480;11.102;2023-04-25T05:52:13;9.20;;;7.50;;
13660;SDS011;6903;49.480;11.102;2023-04-25T05:54:38;9.63;;;7.60;;
13660;SDS011;6903;49.480;11.102;2023-04-25T05:57:03;7.90;;;6.60;;
13660;SDS011;6903;49.480;11.102;2023-04-25T05:59:29;8.53;;;7.30;;
13660;SDS011;6903;49.480;11.102;2023-04-25T06:01:54;7.90;;;7.10;;
13660;SDS011;6903;49.480;11.102;2023-04-25T06:04:19;7.70;;;6.57;;
13660;SDS011;6903;49.480;11.102;2023-04-25T06:06:45;9.33;;;6.70;;
13660;SDS011;6903;49.480;11.102;2023-04-25T06:09:10;7.33;;;6.17;;
13660;SDS011;6903;49.480;11.102;2023-04-25T06:11:35;7.87;;;6.63;;
13660;SDS011;6903;49.480;11.102;2023-04-25T06:14:01;8.03;;;6.73;;
13660;SDS011;6903;49.480;11.102;2023-04-25T06:16:26;7.80;;;6.57;;
13660;SDS011;6903;49.480;11.102;2023-04-25T06:18:51;7.70;;;6.90;;
13660;SDS011;6903;49.480;11.102;2023-04-25T06:21:17;8.67;;;7.43;;
13660;SDS011;6903;49.480;11.102;2023-04-25T06:23:42;8.40;;;7.40;;
13660;SDS011;6903;49.480;11.102;2023-04-25T06:26:07;9.50;;;7.97;;
13660;SDS011;6903;49.480;11.102;2023-04-25T06:28:32;9.17;;;7.60;;
13660;SDS011;6903;49.480;11.102;2023-04-25T06:30:58;9.87;;;8.03;;
13660;SDS011;6903;49.480;11.102;2023-04-25T06:33:23;9.63;;;7.70;;
13660;SDS011;6903;49.480;11.102;2023-04-25T06:35:49;10.93;;;8.30;;
13660;SDS011;6903;49.480;11.102;2023-04-25T06:38:15;9.90;;;7.80;;
13660;SDS011;6903;49.480;11.102;2023-04-25T06:40:40;8.60;;;7.70;;
13660;SDS011;6903;49.480;11.102;2023-04-25T06:43:06;11.20;;;7.90;;
13660;SDS011;6903;49.480;11.102;2023-04-25T06:45:31;8.57;;;7.67;;
13660;SDS011;6903;49.480;11.102;2023-04-25T06:47:57;10.37;;;8.40;;
13660;SDS011;6903;49.480;11.102;2023-04-25T06:50:22;8.90;;;7.47;;
13660;SDS011;6903;49.480;11.102;2023-04-25T06:52:47;9.00;;;7.83;;
13660;SDS011;6903;49.480;11.102;2023-04-25T06:55:13;9.47;;;7.80;;
13660;SDS011;6903;49.480;11.102;2023-04-25T06:57:38;8.67;;;6.90;;
13660;SDS011;6903;49.480;11.102;2023-04-25T07:00:03;10.30;;;7.20;;
13660;SDS011;6903;49.480;11.102;2023-04-25T07:02:33;8.43;;;7.03;;
13660;SDS011;6903;49.480;11.102;2023-04-25T07:04:58;8.67;;;7.20;;
13660;SDS011;6903;49.480;11.102;2023-04-25T07:07:25;7.37;;;6.67;;
13660;SDS011;6903;49.480;11.102;2023-04-25T07:09:50;7.27;;;6.43;;
13660;SDS011;6903;49.480;11.102;2023-04-25T07:12:15;6.97;;;6.27;;
13660;SDS011;6903;49.480;11.102;2023-04-25T07:14:41;6.63;;;5.93;;
13660;SDS011;6903;49.480;11.102;2023-04-25T07:17:06;6.87;;;6.17;;
13660;SDS011;6903;49.480;11.102;2023-04-25T07:19:32;6.53;;;5.90;;
13660;SDS011;6903;49.480;11.102;2023-04-25T07:21:58;5.63;;;5.00;;
13660;SDS011;6903;49.480;11.102;2023-04-25T07:24:23;6.13;;;5.53;;
13660;SDS011;6903;49.480;11.102;2023-04-25T07:26:48;3.90;;;3.47;;
13660;SDS011;6903;49.480;11.102;2023-04-25T07:29:14;3.27;;;2.97;;
13660;SDS011;6903;49.480;11.102;2023-04-25T07:31:39;2.97;;;2.40;;
13660;SDS011;6903;49.480;11.102;2023-04-25T07:34:05;3.40;;;2.73;;
13660;SDS011;6903;49.480;11.102;2023-04-25T07:36:30;3.87;;;2.87;;
13660;SDS011;6903;49.480;11.102;2023-04-25T07:38:56;3.50;;;2.90;;
13660;SDS011;6903;49.480;11.102;2023-04-25T07:41:21;3.83;;;3.13;;
13660;SDS011;6903;49.480;11.102;2023-04-25T07:43:47;4.23;;;3.50;;
13660;SDS011;6903;49.480;11.102;2023-04-25T07:46:12;3.80;;;3.40;;
13660;SDS011;6903;49.480;11.102;2023-04-25T07:48:37;4.20;;;3.80;;
13660;SDS011;6903;49.480;11.102;2023-04-25T07:51:03;5.27;;;4.17;;
13660;SDS011;6903;49.480;11.102;2023-04-25T07:53:30;4.10;;;3.70;;
13660;SDS011;6903;49.480;11.102;2023-04-25T07:55:55;6.80;;;4.47;;
13660;SDS011;6903;49.480;11.102;2023-04-25T07:58:20;5.37;;;3.97;;
13660;SDS011;6903;49.480;11.102;2023-04-25T08:00:47;5.43;;;4.80;;
13660;SDS011;6903;49.480;11.102;2023-04-25T08:03:12;6.37;;;4.67;;
13660;SDS011;6903;49.480;11.102;2023-04-25T08:05:38;6.33;;;4.80;;
13660;SDS011;6903;49.480;11.102;2023-04-25T08:08:03;7.27;;;4.77;;
13660;SDS011;6903;49.480;11.102;2023-04-25T08:10:31;5.70;;;3.67;;
13660;SDS011;6903;49.480;11.102;2023-04-25T08:12:56;4.47;;;3.57;;
13660;SDS011;6903;49.480;11.102;2023-04-25T08:15:22;6.40;;;4.07;;
13660;SDS011;6903;49.480;11.102;2023-04-25T08:17:47;6.23;;;4.20;;
13660;SDS011;6903;49.480;11.102;2023-04-25T08:20:12;6.00;;;3.83;;
13660;SDS011;6903;49.480;11.102;2023-04-25T08:22:38;6.00;;;3.73;;
13660;SDS011;6903;49.480;11.102;2023-04-25T08:25:03;4.60;;;3.60;;
13660;SDS011;6903;49.480;11.102;2023-04-25T08:27:29;4.73;;;3.90;;
13660;SDS011;6903;49.480;11.102;2023-04-25T08:29:54;6.77;;;3.97;;
13660;SDS011;6903;49.480;11.102;2023-04-25T08:32:20;5.50;;;4.37;;
13660;SDS011;6903;49.480;11.102;2023-04-25T08:34:46;5.53;;;3.87;;
13660;SDS011;6903;49.480;11.102;2023-04-25T08:37:11;4.23;;;3.20;;
13660;SDS011;6903;49.480;11.102;2023-04-25T08:39:37;5.93;;;4.17;;
13660;SDS011;6903;49.480;11.102;2023-04-25T08:42:03;5.17;;;3.77;;
13660;SDS011;6903;49.480;11.102;2023-04-25T08:44:33;5.43;;;3.77;;
13660;SDS011;6903;49.480;11.102;2023-04-25T08:47:00;6.20;;;3.60;;
13660;SDS011;6903;49.480;11.102;2023-04-25T08:49:27;5.47;;;4.33;;
13660;SDS011;6903;49.480;11.102;2023-04-25T08:51:54;6.03;;;3.97;;
13660;SDS011;6903;49.480;11.102;2023-04-25T08:54:23;4.27;;;3.87;;
13660;SDS011;6903;49.480;11.102;2023-04-25T08:56:52;5.13;;;4.10;;
13660;SDS011;6903;49.480;11.102;2023-04-25T08:59:19;6.30;;;4.30;;
13660;SDS011;6903;49.480;11.102;2023-04-25T09:01:46;4.67;;;4.23;;
13660;SDS011;6903;49.480;11.102;2023-04-25T09:04:11;6.50;;;4.73;;
13660;SDS011;6903;49.480;11.102;2023-04-25T09:06:37;4.70;;;4.17;;
13660;SDS011;6903;49.480;11.102;2023-04-25T09:09:03;7.07;;;4.30;;
13660;SDS011;6903;49.480;11.102;2023-04-25T09:11:30;5.37;;;4.33;;
13660;SDS011;6903;49.480;11.102;2023-04-25T09:14:15;5.37;;;4.70;;
13660;SDS011;6903;49.480;11.102;2023-04-25T09:19:24;4.53;;;4.13;;
13660;SDS011;6903;49.480;11.102;2023-04-25T09:21:50;5.07;;;4.57;;
13660;SDS011;6903;49.480;11.102;2023-04-25T09:27:06;5.00;;;4.50;;
13660;SDS011;6903;49.480;11.102;2023-04-25T09:29:34;5.93;;;4.37;;
13660;SDS011;6903;49.480;11.102;2023-04-25T09:32:11;4.27;;;3.33;;
13660;SDS011;6903;49.480;11.102;2023-04-25T09:34:45;3.90;;;3.50;;
13660;SDS011;6903;49.480;11.102;2023-04-25T09:37:28;3.97;;;3.43;;
13660;SDS011;6903;49.480;11.102;2023-04-25T09:39:55;4.10;;;3.70;;
13660;SDS011;6903;49.480;11.102;2023-04-25T09:42:22;4.53;;;4.13;;
13660;SDS011;6903;49.480;11.102;2023-04-25T09:44:49;3.73;;;3.43;;
13660;SDS011;6903;49.480;11.102;2023-04-25T09:47:17;4.50;;;4.10;;
13660;SDS011;6903;49.480;11.102;2023-04-25T09:49:42;4.03;;;3.60;;
13660;SDS011;6903;49.480;11.102;2023-04-25T09:52:09;3.95;;;3.63;;
13660;SDS011;6903;49.480;11.102;2023-04-25T09:54:46;4.43;;;3.65;;
13660;SDS011;6903;49.480;11.102;2023-04-25T09:57:17;5.63;;;3.30;;
13660;SDS011;6903;49.480;11.102;2023-04-25T10:02:11;5.45;;;4.60;;
13660;SDS011;6903;49.480;11.102;2023-04-25T10:04:38;4.15;;;3.30;;
13660;SDS011;6903;49.480;11.102;2023-04-25T10:07:05;5.03;;;3.70;;
13660;SDS011;6903;49.480;11.102;2023-04-25T10:09:31;3.50;;;3.20;;
13660;SDS011;6903;49.480;11.102;2023-04-25T10:12:00;4.13;;;3.72;;
13660;SDS011;6903;49.480;11.102;2023-04-25T10:14:26;3.67;;;3.28;;
13660;SDS011;6903;49.480;11.102;2023-04-25T10:16:52;3.35;;;2.60;;
13660;SDS011;6903;49.480;11.102;2023-04-25T10:19:19;2.72;;;2.53;;
13660;SDS011;6903;49.480;11.102;2023-04-25T10:21:56;2.30;;;2.10;;
13660;SDS011;6903;49.480;11.102;2023-04-25T10:24:28;2.95;;;2.30;;
13660;SDS011;6903;49.480;11.102;2023-04-25T10:26:53;3.42;;;2.30;;
13660;SDS011;6903;49.480;11.102;2023-04-25T10:29:23;2.50;;;2.08;;
13660;SDS011;6903;49.480;11.102;2023-04-25T10:31:49;3.13;;;2.50;;
13660;SDS011;6903;49.480;11.102;2023-04-25T10:34:15;2.17;;;1.65;;
13660;SDS011;6903;49.480;11.102;2023-04-25T10:36:41;2.78;;;1.70;;
13660;SDS011;6903;49.480;11.102;2023-04-25T10:39:07;3.20;;;2.15;;
13660;SDS011;6903;49.480;11.102;2023-04-25T10:41:46;2.13;;;1.85;;
13660;SDS011;6903;49.480;11.102;2023-04-25T10:44:17;3.50;;;2.03;;
13660;SDS011;6903;49.480;11.102;2023-04-25T10:46:44;2.22;;;1.92;;
13660;SDS011;6903;49.480;11.102;2023-04-25T10:49:09;3.53;;;2.05;;
13660;SDS011;6903;49.480;11.102;2023-04-25T10:51:36;3.88;;;2.17;;
13660;SDS011;6903;49.480;11.102;2023-04-25T10:54:05;2.53;;;1.98;;
13660;SDS011;6903;49.480;11.102;2023-04-25T10:56:32;3.30;;;1.88;;
13660;SDS011;6903;49.480;11.102;2023-04-25T11:01:40;2.38;;;1.70;;
13660;SDS011;6903;49.480;11.102;2023-04-25T11:07:10;5.22;;;2.97;;
13660;SDS011;6903;49.480;11.102;2023-04-25T11:09:42;3.30;;;2.20;;
13660;SDS011;6903;49.480;11.102;2023-04-25T11:12:10;2.97;;;1.90;;
13660;SDS011;6903;49.480;11.102;2023-04-25T11:14:36;3.13;;;1.73;;
13660;SDS011;6903;49.480;11.102;2023-04-25T11:17:02;3.90;;;1.88;;
13660;SDS011;6903;49.480;11.102;2023-04-25T11:19:27;3.40;;;2.10;;
13660;SDS011;6903;49.480;11.102;2023-04-25T11:21:57;3.45;;;2.05;;
13660;SDS011;6903;49.480;11.102;2023-04-25T11:24:29;4.57;;;1.80;;
13660;SDS011;6903;49.480;11.102;2023-04-25T11:26:56;3.42;;;1.73;;
13660;SDS011;6903;49.480;11.102;2023-04-25T11:29:26;1.80;;;1.50;;
13660;SDS011;6903;49.480;11.102;2023-04-25T11:31:52;2.50;;;2.00;;
13660;SDS011;6903;49.480;11.102;2023-04-25T11:34:18;2.17;;;1.70;;
13660;SDS011;6903;49.480;11.102;2023-04-25T11:36:44;2.70;;;2.00;;
13660;SDS011;6903;49.480;11.102;2023-04-25T11:39:10;2.33;;;2.05;;
13660;SDS011;6903;49.480;11.102;2023-04-25T11:41:37;3.50;;;1.83;;
13660;SDS011;6903;49.480;11.102;2023-04-25T11:44:02;3.22;;;1.80;;
13660;SDS011;6903;49.480;11.102;2023-04-25T11:46:28;2.70;;;1.88;;
13660;SDS011;6903;49.480;11.102;2023-04-25T11:48:54;1.92;;;1.70;;
13660;SDS011;6903;49.480;11.102;2023-04-25T11:51:20;2.65;;;1.60;;
13660;SDS011;6903;49.480;11.102;2023-04-25T11:53:46;1.77;;;1.60;;
13660;SDS011;6903;49.480;11.102;2023-04-25T11:56:11;2.42;;;1.67;;
13660;SDS011;6903;49.480;11.102;2023-04-25T11:58:56;1.75;;;1.63;;
13660;SDS011;6903;49.480;11.102;2023-04-25T12:01:28;5.93;;;2.08;;
13660;SDS011;6903;49.480;11.102;2023-04-25T12:03:55;5.03;;;1.80;;
13660;SDS011;6903;49.480;11.102;2023-04-25T12:06:21;2.83;;;1.20;;
13660;SDS011;6903;49.480;11.102;2023-04-25T12:09:06;1.30;;;1.20;;
13660;SDS011;6903;49.480;11.102;2023-04-25T12:11:40;1.60;;;1.38;;
13660;SDS011;6903;49.480;11.102;2023-04-25T12:14:07;2.80;;;1.58;;
13660;SDS011;6903;49.480;11.102;2023-04-25T12:16:40;2.05;;;1.40;;
13660;SDS011;6903;49.480;11.102;2023-04-25T12:19:09;2.15;;;1.60;;
13660;SDS011;6903;49.480;11.102;2023-04-25T12:21:35;1.88;;;1.48;;
13660;SDS011;6903;49.480;11.102;2023-04-25T12:24:13;1.65;;;1.35;;
13660;SDS011;6903;49.480;11.102;2023-04-25T12:26:47;3.38;;;1.83;;
13660;SDS011;6903;49.480;11.102;2023-04-25T12:29:19;1.83;;;1.35;;
13660;SDS011;6903;49.480;11.102;2023-04-25T12:31:46;1.75;;;1.30;;
13660;SDS011;6903;49.480;11.102;2023-04-25T12:34:12;1.48;;;1.25;;
13660;SDS011;6903;49.480;11.102;2023-04-25T12:36:37;2.63;;;1.52;;
13660;SDS011;6903;49.480;11.102;2023-04-25T12:39:03;2.58;;;1.40;;
13660;SDS011;6903;49.480;11.102;2023-04-25T12:41:29;1.95;;;1.40;;
13660;SDS011;6903;49.480;11.102;2023-04-25T12:43:55;2.50;;;1.90;;
13660;SDS011;6903;49.480;11.102;2023-04-25T12:46:20;2.35;;;1.40;;
13660;SDS011;6903;49.480;11.102;2023-04-25T12:48:45;2.65;;;1.60;;
13660;SDS011;6903;49.480;11.102;2023-04-25T12:51:11;1.40;;;1.30;;
13660;SDS011;6903;49.480;11.102;2023-04-25T12:53:36;2.97;;;1.50;;
13660;SDS011;6903;49.480;11.102;2023-04-25T12:56:03;1.88;;;1.63;;
13660;SDS011;6903;49.480;11.102;2023-04-25T12:58:29;1.75;;;1.65;;
13660;SDS011;6903;49.480;11.102;2023-04-25T13:00:54;2.13;;;1.93;;
13660;SDS011;6903;49.480;11.102;2023-04-25T13:03:20;2.03;;;1.55;;
13660;SDS011;6903;49.480;11.102;2023-04-25T13:05:45;2.87;;;1.97;;
13660;SDS011;6903;49.480;11.102;2023-04-25T13:08:11;2.28;;;1.70;;
13660;SDS011;6903;49.480;11.102;2023-04-25T13:10:36;2.53;;;1.58;;
13660;SDS011;6903;49.480;11.102;2023-04-25T13:13:03;2.83;;;1.80;;
13660;SDS011;6903;49.480;11.102;2023-04-25T13:15:29;3.92;;;1.90;;
13660;SDS011;6903;49.480;11.102;2023-04-25T13:17:55;2.83;;;1.70;;
13660;SDS011;6903;49.480;11.102;2023-04-25T13:20:20;2.15;;;1.80;;
13660;SDS011;6903;49.480;11.102;2023-04-25T13:22:47;2.05;;;1.80;;
13660;SDS011;6903;49.480;11.102;2023-04-25T13:25:12;2.85;;;2.40;;
13660;SDS011;6903;49.480;11.102;2023-04-25T13:27:38;2.08;;;1.88;;
13660;SDS011;6903;49.480;11.102;2023-04-25T13:30:05;1.85;;;1.58;;
13660;SDS011;6903;49.480;11.102;2023-04-25T13:32:34;2.22;;;1.70;;
13660;SDS011;6903;49.480;11.102;2023-04-25T13:35:03;2.97;;;2.10;;
13660;SDS011;6903;49.480;11.102;2023-04-25T13:37:29;2.40;;;2.10;;
13660;SDS011;6903;49.480;11.102;2023-04-25T13:39:55;1.67;;;1.55;;
13660;SDS011;6903;49.480;11.102;2023-04-25T13:42:21;2.10;;;1.90;;
13660;SDS011;6903;49.480;11.102;2023-04-25T13:44:46;2.33;;;1.95;;
13660;SDS011;6903;49.480;11.102;2023-04-25T13:47:12;2.80;;;2.10;;
13660;SDS011;6903;49.480;11.102;2023-04-25T13:49:37;3.20;;;2.00;;
13660;SDS011;6903;49.480;11.102;2023-04-25T13:52:02;3.20;;;2.00;;
13660;SDS011;6903;49.480;11.102;2023-04-25T13:54:28;2.03;;;1.67;;
13660;SDS011;6903;49.480;11.102;2023-04-25T13:56:53;3.57;;;1.90;;
13660;SDS011;6903;49.480;11.102;2023-04-25T13:59:23;2.70;;;1.90;;
13660;SDS011;6903;49.480;11.102;2023-04-25T14:01:48;3.67;;;1.90;;
13660;SDS011;6903;49.480;11.102;2023-04-25T14:04:14;3.10;;;2.00;;
13660;SDS011;6903;49.480;11.102;2023-04-25T14:06:40;3.40;;;1.73;;
13660;SDS011;6903;49.480;11.102;2023-04-25T14:09:06;3.67;;;1.80;;
13660;SDS011;6903;49.480;11.102;2023-04-25T14:11:32;2.67;;;2.00;;
13660;SDS011;6903;49.480;11.102;2023-04-25T14:13:58;2.13;;;1.83;;
13660;SDS011;6903;49.480;11.102;2023-04-25T14:16:23;3.27;;;1.97;;
13660;SDS011;6903;49.480;11.102;2023-04-25T14:18:48;2.70;;;2.13;;
13660;SDS011;6903;49.480;11.102;2023-04-25T14:21:14;2.03;;;1.83;;
13660;SDS011;6903;49.480;11.102;2023-04-25T14:23:39;3.60;;;2.20;;
13660;SDS011;6903;49.480;11.102;2023-04-25T14:26:05;3.50;;;2.30;;
13660;SDS011;6903;49.480;11.102;2023-04-25T14:28:30;3.20;;;2.40;;
13660;SDS011;6903;49.480;11.102;2023-04-25T14:30:55;3.37;;;2.47;;
13660;SDS011;6903;49.480;11.102;2023-04-25T14:33:21;2.90;;;2.40;;
13660;SDS011;6903;49.480;11.102;2023-04-25T14:35:47;3.00;;;2.30;;
13660;SDS011;6903;49.480;11.102;2023-04-25T14:38:12;4.03;;;2.47;;
13660;SDS011;6903;49.480;11.102;2023-04-25T14:40:37;3.23;;;2.57;;
13660;SDS011;6903;49.480;11.102;2023-04-25T14:43:03;3.63;;;2.40;;
13660;SDS011;6903;49.480;11.102;2023-04-25T14:45:28;3.00;;;2.03;;
13660;SDS011;6903;49.480;11.102;2023-04-25T14:47:53;4.70;;;2.37;;
13660;SDS011;6903;49.480;11.102;2023-04-25T14:50:19;4.33;;;2.70;;
13660;SDS011;6903;49.480;11.102;2023-04-25T14:52:44;3.40;;;3.03;;
13660;SDS011;6903;49.480;11.102;2023-04-25T14:55:10;3.40;;;2.40;;
13660;SDS011;6903;49.480;11.102;2023-04-25T14:57:35;2.97;;;2.37;;